PWSweather.com
Personal Weather Stations
Station Observations
IPODRAVI2
Croatia, Trnovec BartoloveckiHR

CroatiaTrnovec BartoloveckiHR

Lat: 46.2947, Lon: 16.3989

Elevation: 535

Station Type: Davis Vantage Pro2 plus

http://www.pljusak.com/trnovec1/wx.html

High Low Average
Temperature 39.4°F4.1°F 30.5°F-0.8°F 35.1°F1.7°F
Dew Point 34.2°F1.2°F 27.3°F-2.6°F 29.7°F-1.3°F
Winds 11.9 mph SW19.2 mph SW Calm Calm 3.7 mph 6.0 mph
Wind Gusts 15.0 mph24.1 mph -- 6.0 mph9.7 mph
Humidity 92% 69% 81%
Pressure 29.83 in1010.20 in 29.24 in990.20 in -
Precipitation 0.01 in0.30 in - -
Hour Temp Dew Point Humidity Winds Wind Gusts Pressure Precip Precip Rate Daily Precip Total
12:00 AM 31.1°F-0.5°C 27.4°F-2.6°C 86% 1.7 mph ENE2.7 kmh ENE 4.0 mph6.4 kmh 29.83 in1010.2 mb 0.00 in0.0 mm 0.00 in/hr0.0 mm/hr 0.00 in0.0 mm
12:10 AM 31.3°F-0.4°C 27.9°F-2.3°C 87% 2.8 mph ESE4.5 kmh ESE 4.0 mph6.4 kmh 29.82 in1009.8 mb 0.00 in0.0 mm 0.00 in/hr0.0 mm/hr 0.00 in0.0 mm
12:20 AM 31.4°F-0.3°C 27.7°F-2.4°C 86% Calm Calm -- 29.82 in1009.8 mb 0.00 in0.0 mm 0.00 in/hr0.0 mm/hr 0.00 in0.0 mm
12:30 AM 31.2°F-0.4°C 27.5°F-2.5°C 86% 0.2 mph ESE0.3 kmh ESE 2.0 mph3.2 kmh 29.82 in1009.8 mb 0.00 in0.0 mm 0.00 in/hr0.0 mm/hr 0.00 in0.0 mm
12:40 AM 30.9°F-0.6°C 27.5°F-2.5°C 87% 2.3 mph ESE3.7 kmh ESE 4.0 mph6.4 kmh 29.82 in1009.8 mb 0.00 in0.0 mm 0.00 in/hr0.0 mm/hr 0.00 in0.0 mm
12:50 AM 30.7°F-0.7°C 27.3°F-2.6°C 87% 0.3 mph ESE0.5 kmh ESE 2.0 mph3.2 kmh 29.82 in1009.8 mb 0.00 in0.0 mm 0.00 in/hr0.0 mm/hr 0.00 in0.0 mm
01:00 AM 30.6°F-0.8°C 27.5°F-2.5°C 88% 3.5 mph ESE5.6 kmh ESE 4.0 mph6.4 kmh 29.81 in1009.5 mb 0.00 in0.0 mm 0.00 in/hr0.0 mm/hr 0.00 in0.0 mm
01:10 AM 30.6°F-0.8°C 27.5°F-2.5°C 88% 4.3 mph SE6.9 kmh SE 7.0 mph11.3 kmh 29.80 in1009.1 mb 0.00 in0.0 mm 0.00 in/hr0.0 mm/hr 0.00 in0.0 mm
01:20 AM 30.5°F-0.8°C 27.4°F-2.6°C 88% 2.9 mph SE4.7 kmh SE 5.0 mph8.0 kmh 29.79 in1008.8 mb 0.00 in0.0 mm 0.00 in/hr0.0 mm/hr 0.00 in0.0 mm
01:30 AM 30.5°F-0.8°C 27.3°F-2.6°C 88% 3.7 mph SE6.0 kmh SE 8.0 mph12.9 kmh 29.78 in1008.5 mb 0.00 in0.0 mm 0.00 in/hr0.0 mm/hr 0.00 in0.0 mm
01:40 AM 30.7°F-0.7°C 27.6°F-2.4°C 88% 3.5 mph SE5.6 kmh SE 5.0 mph8.0 kmh 29.77 in1008.1 mb 0.00 in0.0 mm 0.00 in/hr0.0 mm/hr 0.00 in0.0 mm
01:50 AM 30.9°F-0.6°C 27.5°F-2.5°C 87% 2.8 mph SE4.5 kmh SE 5.0 mph8.0 kmh 29.77 in1008.1 mb 0.00 in0.0 mm 0.00 in/hr0.0 mm/hr 0.00 in0.0 mm
02:00 AM 30.7°F-0.7°C 27.3°F-2.6°C 87% 3.2 mph SE5.1 kmh SE 5.0 mph8.0 kmh 29.76 in1007.8 mb 0.00 in0.0 mm 0.00 in/hr0.0 mm/hr 0.00 in0.0 mm
02:10 AM 30.9°F-0.6°C 27.5°F-2.5°C 87% 2.4 mph SE3.9 kmh SE 5.0 mph8.0 kmh 29.74 in1007.1 mb 0.00 in0.0 mm 0.00 in/hr0.0 mm/hr 0.00 in0.0 mm
02:20 AM 31.4°F-0.3°C 27.9°F-2.3°C 87% 4.7 mph SSE7.6 kmh SSE 7.0 mph11.3 kmh 29.73 in1006.8 mb 0.00 in0.0 mm 0.00 in/hr0.0 mm/hr 0.00 in0.0 mm
02:30 AM 31.8°F-0.1°C 28.1°F-2.2°C 86% 5.0 mph SW8.0 kmh SW 6.0 mph9.7 kmh 29.73 in1006.8 mb 0.00 in0.0 mm 0.00 in/hr0.0 mm/hr 0.00 in0.0 mm
02:40 AM 32.1°F0.1°C 28.1°F-2.2°C 85% 5.0 mph SSW8.0 kmh SSW 9.0 mph14.5 kmh 29.73 in1006.8 mb 0.00 in0.0 mm 0.00 in/hr0.0 mm/hr 0.00 in0.0 mm
02:50 AM 32.4°F0.2°C 28.1°F-2.2°C 84% 2.6 mph SW4.2 kmh SW 5.0 mph8.0 kmh 29.73 in1006.8 mb 0.00 in0.0 mm 0.00 in/hr0.0 mm/hr 0.00 in0.0 mm
03:00 AM 32.3°F0.2°C 28.3°F-2.1°C 85% Calm Calm -- 29.73 in1006.8 mb 0.00 in0.0 mm 0.00 in/hr0.0 mm/hr 0.00 in0.0 mm
03:10 AM 32.3°F0.2°C 28.3°F-2.1°C 85% 2.2 mph SW3.5 kmh SW 6.0 mph9.7 kmh 29.72 in1006.4 mb 0.00 in0.0 mm 0.00 in/hr0.0 mm/hr 0.00 in0.0 mm
03:20 AM 32.9°F0.5°C 28.6°F-1.9°C 84% 4.5 mph WSW7.2 kmh WSW 6.0 mph9.7 kmh 29.71 in1006.1 mb 0.00 in0.0 mm 0.00 in/hr0.0 mm/hr 0.00 in0.0 mm
03:30 AM 33.0°F0.6°C 28.7°F-1.8°C 84% 7.1 mph S11.4 kmh S 10.0 mph16.1 kmh 29.70 in1005.8 mb 0.00 in0.0 mm 0.00 in/hr0.0 mm/hr 0.00 in0.0 mm
03:40 AM 32.7°F0.4°C 28.4°F-2.0°C 84% 6.9 mph SSW11.1 kmh SSW 12.0 mph19.3 kmh 29.69 in1005.4 mb 0.00 in0.0 mm 0.00 in/hr0.0 mm/hr 0.00 in0.0 mm
03:50 AM 32.4°F0.2°C 28.4°F-2.0°C 85% 5.8 mph SW9.3 kmh SW 12.0 mph19.3 kmh 29.69 in1005.4 mb 0.00 in0.0 mm 0.00 in/hr0.0 mm/hr 0.00 in0.0 mm
04:00 AM 32.5°F0.3°C 28.5°F-1.9°C 85% 5.3 mph WSW8.5 kmh WSW 9.0 mph14.5 kmh 29.68 in1005.1 mb 0.00 in0.0 mm 0.00 in/hr0.0 mm/hr 0.00 in0.0 mm
04:10 AM 32.1°F0.1°C 28.1°F-2.2°C 85% 6.9 mph SW11.1 kmh SW 9.0 mph14.5 kmh 29.68 in1005.1 mb 0.00 in0.0 mm 0.00 in/hr0.0 mm/hr 0.00 in0.0 mm
04:20 AM 32.1°F0.1°C 28.4°F-2.0°C 86% 5.9 mph SW9.5 kmh SW 7.0 mph11.3 kmh 29.68 in1005.1 mb 0.00 in0.0 mm 0.00 in/hr0.0 mm/hr 0.00 in0.0 mm
04:30 AM 32.2°F0.1°C 28.2°F-2.1°C 85% 3.6 mph SW5.8 kmh SW 5.0 mph8.0 kmh 29.68 in1005.1 mb 0.00 in0.0 mm 0.00 in/hr0.0 mm/hr 0.00 in0.0 mm
04:40 AM 32.3°F0.2°C 28.3°F-2.1°C 85% 5.3 mph WSW8.5 kmh WSW 8.0 mph12.9 kmh 29.68 in1005.1 mb 0.00 in0.0 mm 0.00 in/hr0.0 mm/hr 0.00 in0.0 mm
04:50 AM 32.3°F0.2°C 28.3°F-2.1°C 85% 5.8 mph SSW9.3 kmh SSW 9.0 mph14.5 kmh 29.68 in1005.1 mb 0.00 in0.0 mm 0.00 in/hr0.0 mm/hr 0.00 in0.0 mm
05:01 AM 32.3°F0.2°C 28.3°F-2.1°C 85% 6.3 mph SW10.1 kmh SW 12.0 mph19.3 kmh 29.68 in1005.1 mb 0.00 in0.0 mm 0.00 in/hr0.0 mm/hr 0.00 in0.0 mm
05:40 AM 31.6°F-0.2°C 28.2°F-2.1°C 87% 4.4 mph SSW7.1 kmh SSW 8.0 mph12.9 kmh 29.65 in1004.1 mb 0.00 in0.0 mm 0.00 in/hr0.0 mm/hr 0.00 in0.0 mm
05:50 AM 31.6°F-0.2°C 27.9°F-2.3°C 86% 6.9 mph SW11.1 kmh SW 12.0 mph19.3 kmh 29.65 in1004.1 mb 0.00 in0.0 mm 0.00 in/hr0.0 mm/hr 0.00 in0.0 mm
06:00 AM 31.6°F-0.2°C 27.9°F-2.3°C 86% 4.1 mph SSW6.6 kmh SSW 8.0 mph12.9 kmh 29.64 in1003.7 mb 0.00 in0.0 mm 0.00 in/hr0.0 mm/hr 0.00 in0.0 mm
06:10 AM 31.6°F-0.2°C 27.9°F-2.3°C 86% 3.3 mph SE5.3 kmh SE 8.0 mph12.9 kmh 29.64 in1003.7 mb 0.00 in0.0 mm 0.00 in/hr0.0 mm/hr 0.00 in0.0 mm
06:20 AM 31.7°F-0.2°C 28.0°F-2.2°C 86% 5.3 mph SSW8.5 kmh SSW 12.0 mph19.3 kmh 29.64 in1003.7 mb 0.00 in0.0 mm 0.00 in/hr0.0 mm/hr 0.00 in0.0 mm
06:30 AM 31.8°F-0.1°C 28.1°F-2.2°C 86% 4.2 mph SW6.8 kmh SW 7.0 mph11.3 kmh 29.63 in1003.4 mb 0.00 in0.0 mm 0.00 in/hr0.0 mm/hr 0.00 in0.0 mm
06:40 AM 31.8°F-0.1°C 28.1°F-2.2°C 86% 5.9 mph S9.5 kmh S 8.0 mph12.9 kmh 29.63 in1003.4 mb 0.00 in0.0 mm 0.00 in/hr0.0 mm/hr 0.00 in0.0 mm
06:50 AM 31.8°F-0.1°C 28.1°F-2.2°C 86% 6.1 mph S9.8 kmh S 8.0 mph12.9 kmh 29.62 in1003.0 mb 0.00 in0.0 mm 0.00 in/hr0.0 mm/hr 0.00 in0.0 mm
07:00 AM 31.8°F-0.1°C 28.1°F-2.2°C 86% 7.2 mph SSW11.6 kmh SSW 9.0 mph14.5 kmh 29.62 in1003.0 mb 0.00 in0.0 mm 0.00 in/hr0.0 mm/hr 0.00 in0.0 mm
07:10 AM 31.9°F-0.1°C 27.9°F-2.3°C 85% 8.0 mph SSW12.9 kmh SSW 15.0 mph24.1 kmh 29.61 in1002.7 mb 0.00 in0.0 mm 0.00 in/hr0.0 mm/hr 0.00 in0.0 mm
07:20 AM 32.0°F0.0°C 28.0°F-2.2°C 85% 9.5 mph S15.3 kmh S 15.0 mph24.1 kmh 29.61 in1002.7 mb 0.00 in0.0 mm 0.00 in/hr0.0 mm/hr 0.00 in0.0 mm
07:30 AM 31.9°F-0.1°C 27.9°F-2.3°C 85% 6.5 mph SW10.5 kmh SW 9.0 mph14.5 kmh 29.61 in1002.7 mb 0.00 in0.0 mm 0.00 in/hr0.0 mm/hr 0.00 in0.0 mm
07:40 AM 31.9°F-0.1°C 27.9°F-2.3°C 85% 7.7 mph SW12.4 kmh SW 12.0 mph19.3 kmh 29.61 in1002.7 mb 0.00 in0.0 mm 0.00 in/hr0.0 mm/hr 0.00 in0.0 mm
07:50 AM 31.8°F-0.1°C 27.8°F-2.3°C 85% 6.9 mph SW11.1 kmh SW 12.0 mph19.3 kmh 29.61 in1002.7 mb 0.00 in0.0 mm 0.00 in/hr0.0 mm/hr 0.00 in0.0 mm
08:00 AM 31.8°F-0.1°C 28.1°F-2.2°C 86% 6.2 mph SW10.0 kmh SW 9.0 mph14.5 kmh 29.61 in1002.7 mb 0.00 in0.0 mm 0.00 in/hr0.0 mm/hr 0.00 in0.0 mm
08:10 AM 32.0°F0.0°C 28.0°F-2.2°C 85% 5.6 mph SSW9.0 kmh SSW 8.0 mph12.9 kmh 29.61 in1002.7 mb 0.00 in0.0 mm 0.00 in/hr0.0 mm/hr 0.00 in0.0 mm
08:20 AM 32.1°F0.1°C 28.1°F-2.2°C 85% 5.6 mph SW9.0 kmh SW 8.0 mph12.9 kmh 29.61 in1002.7 mb 0.00 in0.0 mm 0.00 in/hr0.0 mm/hr 0.00 in0.0 mm
08:30 AM 32.2°F0.1°C 28.2°F-2.1°C 85% 4.3 mph SW6.9 kmh SW 7.0 mph11.3 kmh 29.61 in1002.7 mb 0.00 in0.0 mm 0.00 in/hr0.0 mm/hr 0.00 in0.0 mm
08:40 AM 32.2°F0.1°C 28.2°F-2.1°C 85% 5.1 mph SW8.2 kmh SW 6.0 mph9.7 kmh 29.61 in1002.7 mb 0.00 in0.0 mm 0.00 in/hr0.0 mm/hr 0.00 in0.0 mm
08:50 AM 32.3°F0.2°C 28.3°F-2.1°C 85% 3.8 mph SW6.1 kmh SW 4.0 mph6.4 kmh 29.61 in1002.7 mb 0.00 in0.0 mm 0.00 in/hr0.0 mm/hr 0.00 in0.0 mm
09:00 AM 32.5°F0.3°C 27.9°F-2.3°C 83% 3.3 mph SW5.3 kmh SW 5.0 mph8.0 kmh 29.60 in1002.4 mb 0.00 in0.0 mm 0.00 in/hr0.0 mm/hr 0.00 in0.0 mm
09:10 AM 33.1°F0.6°C 27.9°F-2.3°C 81% 5.4 mph WSW8.7 kmh WSW 8.0 mph12.9 kmh 29.60 in1002.4 mb 0.00 in0.0 mm 0.00 in/hr0.0 mm/hr 0.00 in0.0 mm
09:20 AM 33.3°F0.7°C 28.1°F-2.2°C 81% 3.2 mph SW5.1 kmh SW 5.0 mph8.0 kmh 29.60 in1002.4 mb 0.00 in0.0 mm 0.00 in/hr0.0 mm/hr 0.00 in0.0 mm
09:30 AM 33.4°F0.8°C 28.2°F-2.1°C 81% 1.6 mph SW2.6 kmh SW 4.0 mph6.4 kmh 29.60 in1002.4 mb 0.00 in0.0 mm 0.00 in/hr0.0 mm/hr 0.00 in0.0 mm
09:40 AM 33.4°F0.8°C 28.2°F-2.1°C 81% 2.5 mph SW4.0 kmh SW 5.0 mph8.0 kmh 29.59 in1002.0 mb 0.00 in0.0 mm 0.00 in/hr0.0 mm/hr 0.00 in0.0 mm
09:50 AM 33.6°F0.9°C 28.1°F-2.2°C 80% 3.9 mph SW6.3 kmh SW 6.0 mph9.7 kmh 29.60 in1002.4 mb 0.00 in0.0 mm 0.00 in/hr0.0 mm/hr 0.00 in0.0 mm
10:00 AM 33.9°F1.1°C 28.3°F-2.1°C 80% 3.1 mph SW5.0 kmh SW 3.0 mph4.8 kmh 29.59 in1002.0 mb 0.00 in0.0 mm 0.00 in/hr0.0 mm/hr 0.00 in0.0 mm
10:10 AM 34.5°F1.4°C 28.0°F-2.2°C 77% 6.7 mph WSW10.8 kmh WSW 11.0 mph17.7 kmh 29.60 in1002.4 mb 0.00 in0.0 mm 0.00 in/hr0.0 mm/hr 0.00 in0.0 mm
10:20 AM 35.2°F1.8°C 28.1°F-2.2°C 75% 3.8 mph SSW6.1 kmh SSW 8.0 mph12.9 kmh 29.60 in1002.4 mb 0.00 in0.0 mm 0.00 in/hr0.0 mm/hr 0.00 in0.0 mm
10:30 AM 35.4°F1.9°C 28.3°F-2.1°C 75% 4.3 mph SSW6.9 kmh SSW 7.0 mph11.3 kmh 29.60 in1002.4 mb 0.00 in0.0 mm 0.00 in/hr0.0 mm/hr 0.00 in0.0 mm
10:40 AM 35.3°F1.8°C 28.5°F-1.9°C 76% 5.3 mph SSW8.5 kmh SSW 10.0 mph16.1 kmh 29.59 in1002.0 mb 0.00 in0.0 mm 0.00 in/hr0.0 mm/hr 0.00 in0.0 mm
10:50 AM 35.3°F1.8°C 28.5°F-1.9°C 76% 4.7 mph SSW7.6 kmh SSW 6.0 mph9.7 kmh 29.59 in1002.0 mb 0.00 in0.0 mm 0.00 in/hr0.0 mm/hr 0.00 in0.0 mm
11:00 AM 35.7°F2.1°C 28.5°F-1.9°C 75% 2.7 mph SW4.3 kmh SW 6.0 mph9.7 kmh 29.59 in1002.0 mb 0.00 in0.0 mm 0.00 in/hr0.0 mm/hr 0.00 in0.0 mm
11:10 AM 36.0°F2.2°C 28.8°F-1.8°C 75% 3.1 mph SSW5.0 kmh SSW 5.0 mph8.0 kmh 29.59 in1002.0 mb 0.00 in0.0 mm 0.00 in/hr0.0 mm/hr 0.00 in0.0 mm
11:20 AM 36.3°F2.4°C 28.8°F-1.8°C 74% 3.7 mph SSW6.0 kmh SSW 5.0 mph8.0 kmh 29.58 in1001.7 mb 0.00 in0.0 mm 0.00 in/hr0.0 mm/hr 0.00 in0.0 mm
11:30 AM 36.4°F2.4°C 29.2°F-1.6°C 75% 3.8 mph S6.1 kmh S 6.0 mph9.7 kmh 29.58 in1001.7 mb 0.00 in0.0 mm 0.00 in/hr0.0 mm/hr 0.00 in0.0 mm
11:40 AM 36.5°F2.5°C 29.3°F-1.5°C 75% 3.7 mph SSW6.0 kmh SSW 5.0 mph8.0 kmh 29.58 in1001.7 mb 0.00 in0.0 mm 0.00 in/hr0.0 mm/hr 0.00 in0.0 mm
11:50 AM 36.7°F2.6°C 29.5°F-1.4°C 75% 4.1 mph SW6.6 kmh SW 6.0 mph9.7 kmh 29.58 in1001.7 mb 0.00 in0.0 mm 0.00 in/hr0.0 mm/hr 0.00 in0.0 mm
12:00 PM 37.0°F2.8°C 29.5°F-1.4°C 74% 3.8 mph SW6.1 kmh SW 6.0 mph9.7 kmh 29.57 in1001.4 mb 0.00 in0.0 mm 0.00 in/hr0.0 mm/hr 0.00 in0.0 mm
12:10 PM 37.6°F3.1°C 30.1°F-1.1°C 74% 5.5 mph S8.9 kmh S 8.0 mph12.9 kmh 29.57 in1001.4 mb 0.00 in0.0 mm 0.00 in/hr0.0 mm/hr 0.00 in0.0 mm
12:20 PM 38.3°F3.5°C 30.1°F-1.1°C 72% 3.9 mph SW6.3 kmh SW 6.0 mph9.7 kmh 29.57 in1001.4 mb 0.00 in0.0 mm 0.00 in/hr0.0 mm/hr 0.00 in0.0 mm
12:30 PM 38.8°F3.8°C 30.2°F-1.0°C 71% 4.0 mph WSW6.4 kmh WSW 5.0 mph8.0 kmh 29.57 in1001.4 mb 0.00 in0.0 mm 0.00 in/hr0.0 mm/hr 0.00 in0.0 mm
12:40 PM 39.2°F4.0°C 30.2°F-1.0°C 70% 3.9 mph S6.3 kmh S 6.0 mph9.7 kmh 29.56 in1001.0 mb 0.00 in0.0 mm 0.00 in/hr0.0 mm/hr 0.00 in0.0 mm
12:50 PM 39.1°F3.9°C 29.8°F-1.2°C 69% 6.0 mph SW9.7 kmh SW 10.0 mph16.1 kmh 29.56 in1001.0 mb 0.00 in0.0 mm 0.00 in/hr0.0 mm/hr 0.00 in0.0 mm
01:00 PM 39.4°F4.1°C 30.4°F-0.9°C 70% 6.8 mph SW10.9 kmh SW 13.0 mph20.9 kmh 29.55 in1000.7 mb 0.00 in0.0 mm 0.00 in/hr0.0 mm/hr 0.00 in0.0 mm
01:10 PM 39.3°F4.1°C 30.7°F-0.7°C 71% 11.9 mph SW19.2 kmh SW 15.0 mph24.1 kmh 29.55 in1000.7 mb 0.00 in0.0 mm 0.00 in/hr0.0 mm/hr 0.00 in0.0 mm
01:20 PM 39.2°F4.0°C 30.9°F-0.6°C 72% 8.1 mph SW13.0 kmh SW 13.0 mph20.9 kmh 29.54 in1000.3 mb 0.00 in0.0 mm 0.00 in/hr0.0 mm/hr 0.00 in0.0 mm
01:30 PM 39.3°F4.1°C 31.0°F-0.6°C 72% 7.7 mph SW12.4 kmh SW 11.0 mph17.7 kmh 29.54 in1000.3 mb 0.00 in0.0 mm 0.00 in/hr0.0 mm/hr 0.00 in0.0 mm
01:40 PM 39.0°F3.9°C 31.1°F-0.5°C 73% 7.6 mph SW12.2 kmh SW 10.0 mph16.1 kmh 29.53 in1000.0 mb 0.00 in0.0 mm 0.00 in/hr0.0 mm/hr 0.00 in0.0 mm
01:50 PM 38.8°F3.8°C 31.5°F-0.3°C 75% 5.4 mph SW8.7 kmh SW 7.0 mph11.3 kmh 29.53 in1000.0 mb 0.00 in0.0 mm 0.00 in/hr0.0 mm/hr 0.00 in0.0 mm
02:00 PM 38.8°F3.8°C 31.6°F-0.2°C 75% 5.2 mph SW8.4 kmh SW 8.0 mph12.9 kmh 29.53 in1000.0 mb 0.00 in0.0 mm 0.00 in/hr0.0 mm/hr 0.00 in0.0 mm
02:10 PM 38.9°F3.8°C 31.0°F-0.6°C 73% 6.7 mph SW10.8 kmh SW 9.0 mph14.5 kmh 29.52 in999.7 mb 0.00 in0.0 mm 0.00 in/hr0.0 mm/hr 0.00 in0.0 mm
02:20 PM 39.0°F3.9°C 31.4°F-0.3°C 74% 0.5 mph SW0.8 kmh SW -- 29.52 in999.7 mb 0.00 in0.0 mm 0.00 in/hr0.0 mm/hr 0.00 in0.0 mm
02:30 PM 38.9°F3.8°C 31.3°F-0.4°C 74% 3.1 mph S5.0 kmh S 5.0 mph8.0 kmh 29.52 in999.7 mb 0.00 in0.0 mm 0.00 in/hr0.0 mm/hr 0.00 in0.0 mm
02:40 PM 38.9°F3.8°C 31.0°F-0.6°C 73% 3.1 mph SSW5.0 kmh SSW 6.0 mph9.7 kmh 29.52 in999.7 mb 0.00 in0.0 mm 0.00 in/hr0.0 mm/hr 0.00 in0.0 mm
02:50 PM 38.8°F3.8°C 30.5°F-0.8°C 72% 3.4 mph SW5.5 kmh SW 5.0 mph8.0 kmh 29.52 in999.7 mb 0.00 in0.0 mm 0.00 in/hr0.0 mm/hr 0.00 in0.0 mm
03:00 PM 38.7°F3.7°C 30.8°F-0.7°C 73% 3.9 mph SSW6.3 kmh SSW 6.0 mph9.7 kmh 29.51 in999.3 mb 0.00 in0.0 mm 0.00 in/hr0.0 mm/hr 0.00 in0.0 mm
03:10 PM 38.5°F3.6°C 30.6°F-0.8°C 73% 4.7 mph SSW7.6 kmh SSW 7.0 mph11.3 kmh 29.51 in999.3 mb 0.00 in0.0 mm 0.00 in/hr0.0 mm/hr 0.00 in0.0 mm
03:20 PM 38.4°F3.6°C 30.5°F-0.8°C 73% 2.9 mph S4.7 kmh S 5.0 mph8.0 kmh 29.50 in999.0 mb 0.00 in0.0 mm 0.00 in/hr0.0 mm/hr 0.00 in0.0 mm
03:30 PM 38.4°F3.6°C 30.8°F-0.7°C 74% 1.9 mph S3.1 kmh S 4.0 mph6.4 kmh 29.50 in999.0 mb 0.00 in0.0 mm 0.00 in/hr0.0 mm/hr 0.00 in0.0 mm
03:40 PM 38.3°F3.5°C 30.7°F-0.7°C 74% 2.8 mph SSW4.5 kmh SSW 5.0 mph8.0 kmh 29.50 in999.0 mb 0.00 in0.0 mm 0.00 in/hr0.0 mm/hr 0.00 in0.0 mm
03:50 PM 38.2°F3.4°C 31.0°F-0.6°C 75% 2.3 mph SSW3.7 kmh SSW 4.0 mph6.4 kmh 29.50 in999.0 mb 0.00 in0.0 mm 0.00 in/hr0.0 mm/hr 0.00 in0.0 mm
04:00 PM 38.1°F3.4°C 30.9°F-0.6°C 75% 1.6 mph SSW2.6 kmh SSW 4.0 mph6.4 kmh 29.49 in998.6 mb 0.00 in0.0 mm 0.00 in/hr0.0 mm/hr 0.00 in0.0 mm
04:10 PM 38.0°F3.3°C 31.1°F-0.5°C 76% 2.1 mph SSW3.4 kmh SSW 5.0 mph8.0 kmh 29.49 in998.6 mb 0.00 in0.0 mm 0.00 in/hr0.0 mm/hr 0.00 in0.0 mm
04:20 PM 37.9°F3.3°C 31.0°F-0.6°C 76% 2.5 mph SSW4.0 kmh SSW 4.0 mph6.4 kmh 29.49 in998.6 mb 0.00 in0.0 mm 0.00 in/hr0.0 mm/hr 0.00 in0.0 mm
04:30 PM 37.9°F3.3°C 31.0°F-0.6°C 76% 2.7 mph SW4.3 kmh SW 4.0 mph6.4 kmh 29.48 in998.3 mb 0.00 in0.0 mm 0.00 in/hr0.0 mm/hr 0.00 in0.0 mm
04:40 PM 37.8°F3.2°C 30.9°F-0.6°C 76% 4.5 mph SSW7.2 kmh SSW 6.0 mph9.7 kmh 29.48 in998.3 mb 0.00 in0.0 mm 0.00 in/hr0.0 mm/hr 0.00 in0.0 mm
04:50 PM 37.7°F3.2°C 31.1°F-0.5°C 77% 2.7 mph SSW4.3 kmh SSW 4.0 mph6.4 kmh 29.48 in998.3 mb 0.00 in0.0 mm 0.00 in/hr0.0 mm/hr 0.00 in0.0 mm
05:00 PM 37.6°F3.1°C 31.0°F-0.6°C 77% 2.1 mph S3.4 kmh S 2.0 mph3.2 kmh 29.47 in998.0 mb 0.00 in0.0 mm 0.00 in/hr0.0 mm/hr 0.00 in0.0 mm
05:10 PM 37.5°F3.1°C 31.3°F-0.4°C 78% 2.9 mph SSW4.7 kmh SSW 5.0 mph8.0 kmh 29.47 in998.0 mb 0.00 in0.0 mm 0.00 in/hr0.0 mm/hr 0.00 in0.0 mm
05:20 PM 37.5°F3.1°C 31.2°F-0.4°C 78% 0.7 mph SSW1.1 kmh SSW 3.0 mph4.8 kmh 29.47 in998.0 mb 0.00 in0.0 mm 0.00 in/hr0.0 mm/hr 0.00 in0.0 mm
05:30 PM 37.4°F3.0°C 31.2°F-0.4°C 78% 0.1 mph SSW0.2 kmh SSW 1.0 mph1.6 kmh 29.47 in998.0 mb 0.00 in0.0 mm 0.00 in/hr0.0 mm/hr 0.00 in0.0 mm
05:40 PM 37.3°F2.9°C 31.4°F-0.3°C 79% 0.6 mph SSW1.0 kmh SSW 2.0 mph3.2 kmh 29.46 in997.6 mb 0.00 in0.0 mm 0.00 in/hr0.0 mm/hr 0.00 in0.0 mm
05:50 PM 37.2°F2.9°C 31.0°F-0.6°C 78% 3.1 mph SSW5.0 kmh SSW 3.0 mph4.8 kmh 29.46 in997.6 mb 0.00 in0.0 mm 0.00 in/hr0.0 mm/hr 0.00 in0.0 mm
06:00 PM 37.2°F2.9°C 31.0°F-0.6°C 78% 0.7 mph SW1.1 kmh SW 2.0 mph3.2 kmh 29.46 in997.6 mb 0.00 in0.0 mm 0.00 in/hr0.0 mm/hr 0.00 in0.0 mm
06:10 PM 37.1°F2.8°C 31.2°F-0.4°C 79% 1.4 mph SW2.3 kmh SW 3.0 mph4.8 kmh 29.46 in997.6 mb 0.00 in0.0 mm 0.00 in/hr0.0 mm/hr 0.00 in0.0 mm
06:20 PM 36.9°F2.7°C 30.7°F-0.7°C 78% 1.8 mph SW2.9 kmh SW 4.0 mph6.4 kmh 29.46 in997.6 mb 0.00 in0.0 mm 0.00 in/hr0.0 mm/hr 0.00 in0.0 mm
06:30 PM 36.7°F2.6°C 30.8°F-0.7°C 79% 3.0 mph SSW4.8 kmh SSW 5.0 mph8.0 kmh 29.45 in997.3 mb 0.00 in0.0 mm 0.00 in/hr0.0 mm/hr 0.00 in0.0 mm
06:40 PM 36.7°F2.6°C 30.5°F-0.8°C 78% 4.2 mph S6.8 kmh S 7.0 mph11.3 kmh 29.45 in997.3 mb 0.00 in0.0 mm 0.00 in/hr0.0 mm/hr 0.00 in0.0 mm
06:50 PM 36.9°F2.7°C 30.7°F-0.7°C 78% 3.1 mph S5.0 kmh S 6.0 mph9.7 kmh 29.45 in997.3 mb 0.00 in0.0 mm 0.00 in/hr0.0 mm/hr 0.00 in0.0 mm
07:00 PM 36.7°F2.6°C 30.8°F-0.7°C 79% 2.8 mph S4.5 kmh S 5.0 mph8.0 kmh 29.44 in997.0 mb 0.00 in0.0 mm 0.00 in/hr0.0 mm/hr 0.00 in0.0 mm
07:10 PM 36.8°F2.7°C 30.6°F-0.8°C 78% 0.8 mph S1.3 kmh S 3.0 mph4.8 kmh 29.43 in996.6 mb 0.00 in0.0 mm 0.00 in/hr0.0 mm/hr 0.00 in0.0 mm
07:20 PM 36.8°F2.7°C 30.6°F-0.8°C 78% 1.7 mph S2.7 kmh S 3.0 mph4.8 kmh 29.43 in996.6 mb 0.00 in0.0 mm 0.00 in/hr0.0 mm/hr 0.00 in0.0 mm
07:40 PM 36.8°F2.7°C 30.6°F-0.8°C 78% Calm Calm -- 29.41 in995.9 mb 0.00 in0.0 mm 0.00 in/hr0.0 mm/hr 0.00 in0.0 mm
07:50 PM 36.7°F2.6°C 30.5°F-0.8°C 78% Calm Calm -- 29.40 in995.6 mb 0.00 in0.0 mm 0.00 in/hr0.0 mm/hr 0.00 in0.0 mm
08:00 PM 36.6°F2.6°C 30.4°F-0.9°C 78% 0.1 mph S0.2 kmh S 2.0 mph3.2 kmh 29.39 in995.3 mb 0.00 in0.0 mm 0.00 in/hr0.0 mm/hr 0.00 in0.0 mm
08:10 PM 36.7°F2.6°C 30.5°F-0.8°C 78% 1.9 mph S3.1 kmh S 6.0 mph9.7 kmh 29.39 in995.3 mb 0.00 in0.0 mm 0.00 in/hr0.0 mm/hr 0.00 in0.0 mm
08:20 PM 36.7°F2.6°C 30.5°F-0.8°C 78% Calm Calm 1.0 mph1.6 kmh 29.38 in994.9 mb 0.00 in0.0 mm 0.00 in/hr0.0 mm/hr 0.00 in0.0 mm
08:30 PM 36.8°F2.7°C 30.6°F-0.8°C 78% 2.2 mph S3.5 kmh S 4.0 mph6.4 kmh 29.38 in994.9 mb 0.00 in0.0 mm 0.00 in/hr0.0 mm/hr 0.00 in0.0 mm
08:40 PM 36.7°F2.6°C 30.5°F-0.8°C 78% 4.6 mph S7.4 kmh S 6.0 mph9.7 kmh 29.37 in994.6 mb 0.00 in0.0 mm 0.00 in/hr0.0 mm/hr 0.00 in0.0 mm
08:50 PM 36.8°F2.7°C 30.9°F-0.6°C 79% 2.9 mph S4.7 kmh S 4.0 mph6.4 kmh 29.37 in994.6 mb 0.00 in0.0 mm 0.00 in/hr0.0 mm/hr 0.00 in0.0 mm
09:00 PM 36.8°F2.7°C 31.2°F-0.4°C 80% 3.1 mph S5.0 kmh S 5.0 mph8.0 kmh 29.36 in994.2 mb 0.00 in0.0 mm 0.00 in/hr0.0 mm/hr 0.00 in0.0 mm
09:10 PM 37.0°F2.8°C 31.1°F-0.5°C 79% 5.7 mph S9.2 kmh S 8.0 mph12.9 kmh 29.36 in994.2 mb 0.00 in0.0 mm 0.00 in/hr0.0 mm/hr 0.00 in0.0 mm
09:20 PM 37.1°F2.8°C 31.2°F-0.4°C 79% 5.4 mph SE8.7 kmh SE 7.0 mph11.3 kmh 29.35 in993.9 mb 0.00 in0.0 mm 0.00 in/hr0.0 mm/hr 0.00 in0.0 mm
09:30 PM 37.0°F2.8°C 31.1°F-0.5°C 79% 4.1 mph S6.6 kmh S 5.0 mph8.0 kmh 29.34 in993.6 mb 0.00 in0.0 mm 0.00 in/hr0.0 mm/hr 0.00 in0.0 mm
09:40 PM 36.9°F2.7°C 31.0°F-0.6°C 79% 1.5 mph S2.4 kmh S 3.0 mph4.8 kmh 29.34 in993.6 mb 0.00 in0.0 mm 0.00 in/hr0.0 mm/hr 0.00 in0.0 mm
09:50 PM 36.8°F2.7°C 31.2°F-0.4°C 80% 1.3 mph S2.1 kmh S 2.0 mph3.2 kmh 29.33 in993.2 mb 0.00 in0.0 mm 0.00 in/hr0.0 mm/hr 0.00 in0.0 mm
10:00 PM 36.7°F2.6°C 31.7°F-0.2°C 82% 1.2 mph S1.9 kmh S 5.0 mph8.0 kmh 29.33 in993.2 mb 0.00 in0.0 mm 0.00 in/hr0.0 mm/hr 0.00 in0.0 mm
10:10 PM 36.7°F2.6°C 32.3°F0.2°C 84% 2.6 mph S4.2 kmh S 4.0 mph6.4 kmh 29.32 in992.9 mb 0.00 in0.0 mm 0.00 in/hr0.0 mm/hr 0.00 in0.0 mm
10:20 PM 36.5°F2.5°C 32.7°F0.4°C 86% 3.6 mph S5.8 kmh S 4.0 mph6.4 kmh 29.32 in992.9 mb 0.00 in0.0 mm 0.00 in/hr0.0 mm/hr 0.00 in0.0 mm
10:30 PM 36.4°F2.4°C 32.9°F0.5°C 87% 1.6 mph S2.6 kmh S 3.0 mph4.8 kmh 29.31 in992.6 mb 0.00 in0.0 mm 0.00 in/hr0.0 mm/hr 0.00 in0.0 mm
10:40 PM 36.3°F2.4°C 33.1°F0.6°C 88% 2.9 mph S4.7 kmh S 8.0 mph12.9 kmh 29.30 in992.2 mb 0.00 in0.0 mm 0.00 in/hr0.0 mm/hr 0.00 in0.0 mm
10:50 PM 36.4°F2.4°C 33.5°F0.8°C 89% 3.5 mph S5.6 kmh S 4.0 mph6.4 kmh 29.30 in992.2 mb 0.00 in0.0 mm 0.00 in/hr0.0 mm/hr 0.00 in0.0 mm
11:00 PM 36.4°F2.4°C 33.8°F1.0°C 90% 3.8 mph S6.1 kmh S 10.0 mph16.1 kmh 29.29 in991.9 mb 0.00 in0.0 mm 0.00 in/hr0.0 mm/hr 0.00 in0.0 mm
11:10 PM 36.6°F2.6°C 33.9°F1.1°C 90% 4.3 mph S6.9 kmh S 7.0 mph11.3 kmh 29.28 in991.5 mb 0.00 in0.0 mm 0.00 in/hr0.0 mm/hr 0.00 in0.0 mm
11:20 PM 36.6°F2.6°C 34.2°F1.2°C 91% 2.4 mph S3.9 kmh S 5.0 mph8.0 kmh 29.27 in991.2 mb 0.00 in0.0 mm 0.00 in/hr0.0 mm/hr 0.00 in0.0 mm
11:30 PM 36.6°F2.6°C 34.2°F1.2°C 91% 0.3 mph S0.5 kmh S -- 29.26 in990.9 mb 0.01 in0.3 mm 0.06 in/hr1.5 mm/hr 0.01 in0.3 mm
11:40 PM 36.5°F2.5°C 34.1°F1.2°C 91% Calm Calm -- 29.25 in990.5 mb 0.00 in0.0 mm 0.00 in/hr0.0 mm/hr 0.01 in0.3 mm
11:50 PM 36.3°F2.4°C 34.2°F1.2°C 92% Calm Calm -- 29.24 in990.2 mb 0.00 in0.0 mm 0.00 in/hr0.0 mm/hr 0.01 in0.3 mm